createdAt,value
2023-02-12T00:00:52.665Z,99.90
2023-02-12T00:03:20.836Z,99.90
2023-02-12T00:05:48.580Z,99.90
2023-02-12T00:08:16.415Z,99.90
2023-02-12T00:10:45.788Z,99.90
2023-02-12T00:13:14.855Z,99.90
2023-02-12T00:15:43.826Z,99.90
2023-02-12T00:18:11.706Z,99.90
2023-02-12T00:20:40.118Z,99.90
2023-02-12T00:23:08.303Z,99.90
2023-02-12T00:25:36.066Z,99.90
2023-02-12T00:28:05.232Z,99.90
2023-02-12T00:30:33.990Z,99.90
2023-02-12T00:33:01.720Z,99.90
2023-02-12T00:35:29.533Z,99.90
2023-02-12T00:37:57.254Z,99.90
2023-02-12T00:40:25.062Z,99.90
2023-02-12T00:42:52.947Z,99.90
2023-02-12T00:45:22.108Z,99.90
2023-02-12T00:47:49.963Z,99.90
2023-02-12T00:50:17.961Z,99.90
2023-02-12T00:52:45.729Z,99.90
2023-02-12T00:55:13.487Z,99.90
2023-02-12T00:57:41.255Z,99.90
2023-02-12T05:02:56.106Z,98.30
2023-02-12T05:05:23.987Z,99.90
2023-02-12T05:07:52.238Z,99.90
2023-02-12T05:10:20.484Z,99.90
2023-02-12T05:12:48.262Z,99.90
2023-02-12T05:15:16.083Z,99.90
2023-02-12T05:17:45.776Z,99.90
2023-02-12T05:20:15.664Z,99.90
2023-02-12T05:22:43.456Z,99.90
2023-02-12T05:25:11.644Z,99.90
2023-02-12T05:27:39.412Z,99.90
2023-02-12T05:30:09.529Z,99.90
2023-02-12T05:32:37.489Z,99.90
2023-02-12T05:35:06.102Z,99.90
2023-02-12T05:37:37.103Z,99.90
2023-02-12T05:40:06.476Z,99.90
2023-02-12T05:42:34.411Z,99.90
2023-02-12T05:45:02.207Z,99.90
2023-02-12T05:47:30.125Z,99.90
2023-02-12T05:49:57.884Z,99.90
2023-02-12T05:52:25.738Z,99.90
2023-02-12T05:54:54.909Z,99.90
2023-02-12T05:57:22.711Z,99.90
2023-02-12T05:59:50.524Z,99.90
2023-02-12T06:02:18.327Z,99.90
2023-02-12T06:04:48.532Z,99.90
2023-02-12T06:07:16.466Z,99.90
2023-02-12T06:09:44.280Z,99.90
2023-02-12T06:12:13.400Z,99.90
2023-02-12T06:14:42.442Z,99.90
2023-02-12T06:17:11.147Z,99.90
2023-02-12T06:19:39.210Z,99.90
2023-02-12T06:22:07.309Z,99.90
2023-02-12T06:24:35.323Z,99.90
2023-02-12T06:27:03.080Z,99.90
2023-02-12T06:29:32.260Z,99.90
2023-02-12T06:32:00.118Z,99.90
2023-02-12T06:34:28.184Z,99.90
2023-02-12T06:36:56.024Z,99.90
2023-02-12T06:39:23.794Z,99.90
2023-02-12T06:41:51.567Z,99.90
2023-02-12T06:44:19.383Z,99.90
2023-02-12T06:46:48.640Z,99.90
2023-02-12T06:49:16.771Z,99.90
2023-02-12T06:51:44.690Z,99.90
2023-02-12T06:54:17.101Z,99.90
2023-02-12T06:56:45.384Z,99.90
2023-02-12T06:59:16.045Z,99.90
2023-02-12T07:01:44.452Z,99.90
2023-02-12T07:04:13.749Z,99.90
2023-02-12T07:06:41.875Z,99.90
2023-02-12T07:09:09.717Z,99.90
2023-02-12T07:11:38.776Z,99.90
2023-02-12T07:14:07.126Z,99.90
2023-02-12T07:16:35.031Z,99.90
2023-02-12T07:19:02.906Z,99.90
2023-02-12T07:21:32.867Z,99.90
2023-02-12T07:24:00.881Z,99.90
2023-02-12T07:26:28.821Z,99.90
2023-02-12T07:28:59.152Z,99.90
2023-02-12T07:31:27.153Z,99.90
2023-02-12T07:33:55.822Z,99.90
2023-02-12T07:36:24.211Z,99.90
2023-02-12T07:38:54.536Z,99.90
2023-02-12T07:41:25.049Z,99.90
2023-02-12T07:43:56.392Z,99.90
2023-02-12T07:46:29.693Z,99.90
2023-02-12T07:48:58.659Z,99.90
2023-02-12T07:51:27.247Z,99.90
2023-02-12T07:53:56.723Z,99.90
2023-02-12T07:56:29.533Z,99.90
2023-02-12T07:58:58.402Z,99.90
2023-02-12T08:01:28.036Z,99.90
2023-02-12T08:03:58.841Z,99.90
2023-02-12T08:06:30.820Z,99.90
2023-02-12T08:09:01.793Z,99.90
2023-02-12T08:11:30.762Z,99.90
2023-02-12T08:13:59.201Z,99.90
2023-02-12T08:16:29.186Z,99.90
2023-02-12T08:19:07.154Z,99.90
2023-02-12T08:21:42.541Z,99.90
2023-02-12T08:24:12.537Z,99.90
2023-02-12T08:26:41.050Z,99.90
2023-02-12T08:29:10.653Z,99.90
2023-02-12T08:31:41.362Z,99.90
2023-02-12T08:34:18.342Z,99.90
2023-02-12T08:36:47.429Z,99.90
2023-02-12T08:39:17.526Z,99.90
2023-02-12T08:41:45.749Z,99.90
2023-02-12T08:44:14.309Z,99.90
2023-02-12T08:46:45.962Z,99.90
2023-02-12T08:49:15.435Z,99.90
2023-02-12T08:51:46.697Z,99.90
2023-02-12T08:54:19.476Z,99.90
2023-02-12T08:56:47.569Z,99.90
2023-02-12T08:59:16.690Z,99.90
2023-02-12T09:01:45.372Z,99.90
2023-02-12T09:04:17.839Z,99.90
2023-02-12T09:06:47.253Z,99.90
2023-02-12T09:09:17.427Z,99.90
2023-02-12T09:11:45.393Z,99.90
2023-02-12T09:14:15.233Z,99.90
2023-02-12T09:16:43.692Z,99.90
2023-02-12T09:19:13.884Z,99.90
2023-02-12T09:21:42.154Z,99.90
2023-02-12T09:24:10.676Z,99.90
2023-02-12T09:26:40.948Z,99.90
2023-02-12T09:29:10.506Z,99.90
2023-02-12T09:31:38.693Z,99.90
2023-02-12T09:34:07.964Z,99.90
2023-02-12T09:39:07.657Z,99.90
2023-02-12T09:42:11.402Z,99.90
2023-02-12T09:44:45.532Z,99.90
2023-02-12T09:47:18.503Z,99.90
2023-02-12T09:50:04.220Z,99.90
2023-02-12T09:52:32.475Z,99.90
2023-02-12T09:57:33.599Z,99.90
2023-02-12T10:00:06.420Z,99.90
2023-02-12T10:02:37.363Z,99.90
2023-02-12T10:05:06.868Z,99.90
2023-02-12T10:07:57.407Z,99.90
2023-02-12T10:10:41.236Z,99.90
2023-02-12T10:13:17.881Z,99.90
2023-02-12T10:15:54.463Z,99.90
2023-02-12T10:18:43.413Z,99.90
2023-02-12T10:21:25.614Z,99.90
2023-02-12T10:24:26.840Z,99.90
2023-02-12T10:26:58.919Z,99.90
2023-02-12T10:29:33.024Z,99.90
2023-02-12T10:32:05.696Z,99.90
2023-02-12T10:34:36.202Z,99.90
2023-02-12T10:37:11.603Z,99.90
2023-02-12T10:39:45.554Z,99.90
2023-02-12T10:42:18.019Z,99.90
2023-02-12T10:44:47.553Z,99.90
2023-02-12T10:47:18.850Z,99.90
2023-02-12T10:49:47.827Z,99.90
2023-02-12T10:52:22.939Z,99.90
2023-02-12T10:54:50.935Z,99.90
2023-02-12T10:57:22.528Z,99.90
2023-02-12T10:59:53.980Z,99.90
2023-02-12T11:02:28.127Z,99.90
2023-02-12T11:04:58.039Z,99.90
2023-02-12T11:07:26.981Z,99.90
2023-02-12T11:09:56.660Z,99.90
2023-02-12T11:12:35.681Z,99.90
2023-02-12T11:15:14.257Z,99.90
2023-02-12T11:17:44.471Z,99.90
2023-02-12T11:20:28.017Z,99.90
2023-02-12T11:22:58.505Z,99.90
2023-02-12T11:25:28.248Z,99.90
2023-02-12T11:28:18.218Z,99.90
2023-02-12T11:30:56.223Z,99.90
2023-02-12T11:33:27.563Z,99.90
2023-02-12T11:35:58.264Z,99.90
2023-02-12T11:38:35.188Z,99.90
2023-02-12T11:41:24.147Z,99.90
2023-02-12T11:43:52.989Z,99.90
2023-02-12T11:46:25.040Z,99.90
2023-02-12T11:48:54.439Z,99.90
2023-02-12T11:51:26.668Z,99.90
2023-02-12T11:53:56.442Z,99.90
2023-02-12T11:56:24.566Z,99.90
2023-02-12T11:58:53.387Z,99.90
2023-02-12T12:01:28.301Z,99.90
2023-02-12T12:04:04.150Z,99.90
2023-02-12T12:06:35.990Z,99.90
2023-02-12T12:09:11.669Z,99.90
2023-02-12T12:11:47.259Z,99.90
2023-02-12T12:14:21.272Z,99.90
2023-02-12T12:17:14.274Z,99.90
2023-02-12T12:19:54.322Z,99.90
2023-02-12T12:22:36.488Z,99.90
2023-02-12T12:25:17.207Z,99.90
2023-02-12T12:28:05.703Z,99.90
2023-02-12T12:30:44.466Z,99.90
2023-02-12T12:33:18.067Z,99.90
2023-02-12T12:35:59.294Z,99.90
2023-02-12T12:38:40.873Z,99.90
2023-02-12T12:41:20.122Z,99.90
2023-02-12T12:43:58.849Z,99.90
2023-02-12T12:46:38.380Z,99.90
2023-02-12T12:49:21.424Z,99.90
2023-02-12T12:54:44.781Z,99.90
2023-02-12T12:57:21.803Z,99.90
2023-02-12T13:00:10.950Z,99.90
2023-02-12T13:03:21.378Z,99.90
2023-02-12T13:06:14.094Z,99.90
2023-02-12T13:08:53.140Z,99.90
2023-02-12T13:11:34.326Z,99.90
2023-02-12T13:14:14.019Z,99.90
2023-02-12T13:16:46.815Z,99.90
2023-02-12T13:19:24.362Z,99.90
2023-02-12T13:21:59.904Z,99.90
2023-02-12T13:24:36.166Z,99.90
2023-02-12T13:27:07.676Z,99.90
2023-02-12T13:29:39.874Z,99.90
2023-02-12T13:32:15.762Z,99.90
2023-02-12T13:34:47.748Z,99.90
2023-02-12T13:37:22.083Z,99.90
2023-02-12T13:42:35.301Z,99.90
2023-02-12T13:45:14.471Z,99.90
2023-02-12T13:50:32.288Z,99.90
2023-02-12T13:53:08.999Z,99.90
2023-02-12T13:55:42.404Z,99.90
2023-02-12T13:59:00.259Z,99.90
2023-02-12T14:01:41.769Z,99.90
2023-02-12T14:04:28.678Z,99.90
2023-02-12T14:07:01.315Z,98.60
2023-02-12T14:09:36.618Z,92.60
2023-02-12T14:12:06.567Z,95.40
2023-02-12T14:14:37.229Z,95.50
2023-02-12T14:17:41.723Z,96.50
2023-02-12T14:20:21.822Z,94.30
2023-02-12T14:23:21.398Z,98.00
2023-02-12T14:25:58.655Z,98.70
2023-02-12T14:28:34.316Z,99.00
2023-02-12T14:31:38.897Z,96.00
2023-02-12T14:34:39.489Z,99.90
2023-02-12T14:37:37.534Z,99.90
2023-02-12T14:40:44.428Z,99.20
2023-02-12T14:43:30.264Z,99.90
2023-02-12T14:45:59.165Z,99.90
2023-02-12T14:48:48.650Z,99.90
2023-02-12T14:51:21.320Z,99.90
2023-02-12T14:53:52.485Z,99.90
2023-02-12T14:56:22.881Z,99.90
2023-02-12T14:58:54.506Z,99.90
2023-02-12T15:01:31.514Z,99.90
2023-02-12T15:04:00.104Z,99.90
2023-02-12T15:06:38.322Z,99.90
2023-02-12T15:09:13.001Z,99.90
2023-02-12T15:11:46.120Z,99.90
2023-02-12T15:14:20.061Z,99.90
2023-02-12T15:16:59.694Z,99.90
2023-02-12T15:19:38.889Z,99.90
2023-02-12T15:22:21.284Z,99.90
2023-02-12T15:27:19.491Z,99.90
2023-02-12T15:29:52.407Z,99.90
2023-02-12T15:32:25.263Z,99.90
2023-02-12T15:34:55.357Z,99.90
2023-02-12T15:37:27.280Z,99.90
2023-02-12T15:39:57.979Z,99.90
2023-02-12T15:42:31.696Z,99.90
2023-02-12T15:45:22.034Z,99.90
2023-02-12T15:48:01.147Z,99.90
2023-02-12T15:50:30.681Z,99.90
2023-02-12T15:52:59.015Z,99.90
2023-02-12T15:55:29.005Z,99.90
2023-02-12T15:57:58.714Z,99.90
2023-02-12T16:00:36.897Z,99.90
2023-02-12T16:03:04.811Z,99.90
2023-02-12T16:05:35.442Z,99.90
2023-02-12T16:08:03.821Z,99.90
2023-02-12T16:10:31.772Z,99.90
2023-02-12T16:13:00.118Z,99.90
2023-02-12T16:15:32.377Z,99.90
2023-02-12T16:18:04.726Z,99.90
2023-02-12T16:20:33.023Z,99.90
2023-02-12T16:23:06.177Z,99.90
2023-02-12T16:25:35.251Z,99.90
2023-02-12T16:28:05.588Z,99.90
2023-02-12T16:30:38.708Z,99.90
2023-02-12T16:33:27.174Z,99.90
2023-02-12T16:36:02.310Z,99.90
2023-02-12T16:38:41.629Z,99.90
2023-02-12T16:41:25.230Z,99.90
2023-02-12T16:44:25.678Z,99.90
2023-02-12T16:46:57.188Z,99.90
2023-02-12T16:49:26.943Z,99.90
2023-02-12T16:51:55.103Z,99.90
2023-02-12T16:54:29.556Z,99.90
2023-02-12T16:56:57.910Z,99.90
2023-02-12T16:59:25.718Z,99.90
2023-02-12T17:02:02.963Z,99.90
2023-02-12T17:04:30.992Z,99.90
2023-02-12T17:06:58.921Z,99.90
2023-02-12T17:09:26.693Z,99.90
2023-02-12T17:11:54.414Z,99.90
2023-02-12T17:14:22.176Z,99.90
2023-02-12T17:16:50.488Z,99.90
2023-02-12T17:19:19.783Z,99.90
2023-02-12T17:21:51.072Z,99.90
2023-02-12T17:24:22.003Z,99.90
2023-02-12T17:26:50.799Z,99.90
2023-02-12T17:31:47.897Z,99.90
2023-02-12T17:34:16.887Z,99.90
2023-02-12T17:36:46.070Z,99.90
2023-02-12T17:39:15.588Z,99.90
2023-02-12T17:41:44.110Z,99.90
2023-02-12T17:44:13.878Z,99.90
2023-02-12T17:46:41.910Z,99.90
2023-02-12T17:49:09.904Z,99.90
2023-02-12T17:51:37.937Z,99.90
2023-02-12T17:54:07.510Z,99.90
2023-02-12T17:56:35.343Z,99.90
2023-02-12T17:59:03.530Z,99.90
2023-02-12T18:01:31.447Z,99.90
2023-02-12T18:03:59.644Z,99.90
2023-02-12T18:06:29.817Z,99.90
2023-02-12T18:08:57.816Z,99.90
2023-02-12T18:11:27.807Z,99.90
2023-02-12T18:13:57.407Z,99.90
2023-02-12T18:16:27.587Z,99.90
2023-02-12T18:18:55.610Z,99.90
2023-02-12T18:21:23.457Z,99.90
2023-02-12T18:23:51.312Z,99.90
2023-02-12T18:26:20.114Z,99.90
2023-02-12T18:28:50.022Z,99.90
2023-02-12T18:31:19.847Z,99.90
2023-02-12T18:33:47.920Z,99.90
2023-02-12T18:36:19.066Z,99.90
2023-02-12T18:38:48.244Z,99.90
2023-02-12T18:41:17.734Z,99.90
2023-02-12T18:43:46.475Z,99.90
2023-02-12T18:46:17.735Z,99.90
2023-02-12T18:48:45.665Z,99.90
2023-02-12T18:51:17.423Z,99.90
2023-02-12T18:53:46.274Z,99.90
2023-02-12T18:56:14.526Z,99.90
2023-02-12T18:58:42.383Z,99.90
2023-02-12T19:01:15.805Z,99.90
2023-02-12T19:03:44.038Z,99.90
2023-02-12T19:06:12.618Z,99.90
2023-02-12T19:08:40.732Z,99.90
2023-02-12T19:11:09.910Z,99.90
2023-02-12T19:13:37.826Z,99.90
2023-02-12T19:16:08.989Z,99.90
2023-02-12T19:18:38.282Z,99.90
2023-02-12T19:21:09.492Z,99.90
2023-02-12T19:23:37.733Z,99.90
2023-02-12T19:26:06.218Z,99.90
2023-02-12T19:28:35.681Z,99.90
2023-02-12T19:31:12.411Z,99.90
2023-02-12T19:33:44.586Z,99.90
2023-02-12T19:36:14.926Z,99.90
2023-02-12T19:38:42.966Z,99.90
2023-02-12T19:41:12.352Z,99.90
2023-02-12T19:43:40.444Z,99.90
2023-02-12T19:46:10.545Z,99.90
2023-02-12T19:48:38.650Z,99.90
2023-02-12T19:51:10.013Z,99.90
2023-02-12T19:53:37.927Z,99.90
2023-02-12T19:56:07.342Z,99.90
2023-02-12T19:58:35.684Z,99.90
2023-02-12T20:01:08.846Z,99.90
2023-02-12T20:03:36.905Z,99.90
2023-02-12T20:06:09.442Z,99.90
2023-02-12T20:08:38.143Z,99.90
2023-02-12T20:11:07.201Z,99.90
2023-02-12T20:13:35.669Z,99.90
2023-02-12T20:16:04.297Z,99.90
2023-02-12T20:18:32.151Z,99.90
2023-02-12T20:21:00.474Z,99.90
2023-02-12T20:23:29.672Z,99.90
2023-02-12T20:25:57.501Z,99.90
2023-02-12T20:28:26.986Z,99.90
2023-02-12T20:30:55.518Z,99.90
2023-02-12T20:33:23.524Z,99.90
2023-02-12T20:35:56.575Z,99.90
2023-02-12T20:38:24.483Z,99.90
2023-02-12T20:40:55.303Z,99.90
2023-02-12T20:43:23.281Z,99.90
2023-02-12T20:45:51.139Z,99.90
2023-02-12T20:48:20.932Z,99.90
2023-02-12T20:50:48.699Z,99.90
2023-02-12T20:53:16.477Z,99.90
2023-02-12T20:55:44.275Z,99.90
2023-02-12T20:58:13.372Z,99.90
2023-02-12T21:00:41.149Z,99.90
2023-02-12T21:03:08.922Z,99.90
2023-02-12T21:05:38.401Z,99.90
2023-02-12T21:08:06.402Z,99.90
2023-02-12T21:10:35.110Z,99.90
2023-02-12T21:13:03.053Z,99.90
2023-02-12T21:15:32.261Z,99.90
2023-02-12T21:18:00.124Z,99.90
2023-02-12T21:20:28.029Z,99.90
2023-02-12T21:22:55.796Z,99.90
2023-02-12T21:25:23.804Z,99.90
2023-02-12T21:30:20.922Z,99.90
2023-02-12T21:32:51.120Z,99.90
2023-02-12T21:35:18.878Z,99.90
2023-02-12T21:37:46.762Z,99.90
2023-02-12T21:40:14.657Z,99.90
2023-02-12T21:42:42.580Z,99.90
2023-02-12T21:45:10.750Z,99.90
2023-02-12T21:47:38.550Z,99.90
2023-02-12T21:50:08.796Z,99.90
2023-02-12T21:52:36.555Z,99.90
2023-02-12T21:57:32.581Z,99.90
2023-02-12T22:00:00.588Z,99.90
2023-02-12T22:02:28.793Z,99.90
2023-02-12T22:04:56.546Z,99.90
2023-02-12T22:07:25.853Z,99.90
2023-02-12T22:09:56.584Z,99.90
2023-02-12T22:12:24.460Z,99.90
2023-02-12T22:14:52.269Z,99.90
2023-02-12T22:17:20.012Z,99.90
2023-02-12T22:19:47.808Z,99.90
2023-02-12T22:22:15.594Z,99.90
2023-02-12T22:24:44.948Z,99.90
2023-02-12T22:27:12.736Z,99.90
2023-02-12T22:29:40.568Z,99.90
2023-02-12T22:32:08.632Z,99.90
2023-02-12T22:34:36.643Z,99.90
2023-02-12T22:37:04.751Z,99.90
2023-02-12T22:39:32.567Z,99.90
2023-02-12T22:42:02.134Z,99.90
2023-02-12T22:44:30.021Z,99.90
2023-02-12T22:46:57.920Z,99.90
2023-02-12T22:49:25.903Z,99.90
2023-02-12T22:51:53.720Z,99.90
2023-02-12T22:54:21.771Z,99.90
2023-02-12T22:56:52.265Z,99.90
2023-02-12T22:59:21.366Z,99.90
2023-02-12T23:01:49.232Z,99.90
2023-02-12T23:04:18.742Z,99.90
2023-02-12T23:06:47.675Z,99.90
2023-02-12T23:09:18.949Z,99.90
2023-02-12T23:11:47.187Z,99.90
2023-02-12T23:14:15.168Z,99.90
2023-02-12T23:16:44.429Z,99.90
2023-02-12T23:19:12.797Z,99.90
2023-02-12T23:21:41.271Z,99.90
2023-02-12T23:24:12.577Z,99.90
2023-02-12T23:26:40.322Z,99.90
2023-02-12T23:29:08.187Z,99.90
2023-02-12T23:31:36.250Z,99.90
2023-02-12T23:34:05.475Z,99.90
2023-02-12T23:36:33.277Z,99.90
2023-02-12T23:39:01.090Z,99.90
2023-02-12T23:41:28.817Z,99.90
2023-02-12T23:43:56.591Z,99.90
2023-02-12T23:46:24.533Z,99.90
2023-02-12T23:48:52.326Z,99.90
2023-02-12T23:51:21.463Z,99.90
2023-02-12T23:53:49.334Z,99.90
2023-02-12T23:56:17.090Z,99.90
2023-02-12T23:58:44.956Z,99.90
